createdAt,value
2019-01-14T00:02:04.874Z,5.70
2019-01-14T00:04:35.169Z,5.70
2019-01-14T00:07:05.596Z,5.60
2019-01-14T00:09:38.371Z,5.60
2019-01-14T00:12:08.755Z,5.50
2019-01-14T00:14:39.148Z,5.40
2019-01-14T00:17:09.630Z,5.30
2019-01-14T00:19:39.978Z,5.20
2019-01-14T00:22:10.497Z,5.10
2019-01-14T00:24:40.960Z,5.10
2019-01-14T00:27:11.381Z,5.10
2019-01-14T00:29:41.791Z,5.10
2019-01-14T00:32:12.198Z,5.10
2019-01-14T00:34:42.551Z,5.00
2019-01-14T00:37:12.899Z,5.00
2019-01-14T00:39:43.331Z,5.10
2019-01-14T00:42:14.543Z,5.20
2019-01-14T00:44:44.987Z,5.10
2019-01-14T00:47:15.401Z,5.20
2019-01-14T00:49:45.667Z,5.20
2019-01-14T00:52:16.096Z,5.20
2019-01-14T00:54:46.579Z,5.20
2019-01-14T00:57:17.009Z,5.10
2019-01-14T00:59:47.385Z,5.20
2019-01-14T01:02:17.764Z,5.10
2019-01-14T01:04:48.182Z,5.10
2019-01-14T01:07:18.610Z,5.00
2019-01-14T01:09:49.042Z,5.00
2019-01-14T01:12:19.336Z,5.10
2019-01-14T01:14:49.700Z,5.10
2019-01-14T01:17:19.989Z,5.10
2019-01-14T01:19:50.255Z,5.10
2019-01-14T01:22:20.550Z,5.10
2019-01-14T01:24:50.975Z,5.10
2019-01-14T01:27:21.398Z,5.10
2019-01-14T01:29:51.698Z,5.20
2019-01-14T01:32:22.144Z,5.20
2019-01-14T01:34:52.480Z,5.10
2019-01-14T01:37:22.786Z,5.10
2019-01-14T01:39:53.076Z,5.10
2019-01-14T01:42:23.405Z,5.10
2019-01-14T01:44:53.769Z,5.20
2019-01-14T01:47:24.071Z,5.20
2019-01-14T01:49:54.335Z,5.20
2019-01-14T01:52:24.622Z,5.20
2019-01-14T01:54:54.869Z,5.30
2019-01-14T01:57:25.226Z,5.30
2019-01-14T01:59:55.641Z,5.40
2019-01-14T02:02:26.055Z,5.30
2019-01-14T02:04:56.486Z,5.30
2019-01-14T02:07:26.905Z,5.30
2019-01-14T02:09:57.302Z,5.30
2019-01-14T02:12:27.614Z,5.20
2019-01-14T02:14:57.928Z,5.10
2019-01-14T02:17:28.252Z,5.10
2019-01-14T02:19:58.553Z,5.10
2019-01-14T02:22:28.929Z,5.10
2019-01-14T02:24:59.226Z,5.10
2019-01-14T02:27:29.606Z,5.10
2019-01-14T02:29:59.918Z,5.10
2019-01-14T02:32:30.230Z,5.20
2019-01-14T02:35:00.583Z,5.20
2019-01-14T02:37:30.896Z,5.20
2019-01-14T02:40:01.157Z,5.20
2019-01-14T02:42:31.298Z,5.30
2019-01-14T02:45:01.559Z,5.30
2019-01-14T02:47:31.957Z,5.30
2019-01-14T02:50:02.673Z,5.30
2019-01-14T02:52:39.448Z,5.30
2019-01-14T02:55:06.052Z,5.30
2019-01-14T02:57:36.485Z,5.20
2019-01-14T03:00:16.584Z,5.20
2019-01-14T03:02:46.827Z,5.20
2019-01-14T03:05:17.242Z,5.20
2019-01-14T03:07:47.889Z,5.10
2019-01-14T03:10:18.383Z,5.20
2019-01-14T03:12:48.806Z,5.30
2019-01-14T03:15:20.576Z,5.30
2019-01-14T03:17:50.904Z,5.20
2019-01-14T03:20:21.312Z,5.30
2019-01-14T03:22:51.650Z,5.20
2019-01-14T03:25:21.861Z,5.30
2019-01-14T03:27:52.116Z,5.30
2019-01-14T03:30:22.462Z,5.30
2019-01-14T03:32:52.783Z,5.40
2019-01-14T03:35:23.279Z,5.40
2019-01-14T03:37:53.693Z,5.40
2019-01-14T03:40:24.106Z,5.40
2019-01-14T03:42:54.568Z,5.40
2019-01-14T03:45:24.897Z,5.50
2019-01-14T03:47:55.388Z,5.50
2019-01-14T03:50:26.755Z,5.40
2019-01-14T03:52:57.206Z,5.40
2019-01-14T03:55:27.698Z,5.40
2019-01-14T03:57:58.223Z,5.40
2019-01-14T04:00:28.596Z,5.40
2019-01-14T04:02:59.094Z,5.50
2019-01-14T04:05:29.461Z,5.40
2019-01-14T04:08:00.125Z,5.40
2019-01-14T04:10:30.552Z,5.40
2019-01-14T04:13:01.940Z,5.40
2019-01-14T04:15:32.337Z,5.40
2019-01-14T04:18:02.784Z,5.40
2019-01-14T04:20:34.183Z,5.30
2019-01-14T04:23:04.647Z,5.30
2019-01-14T04:25:34.998Z,5.30
2019-01-14T04:28:05.398Z,5.20
2019-01-14T04:30:35.828Z,5.20
2019-01-14T04:33:06.189Z,5.20
2019-01-14T04:35:36.540Z,5.10
2019-01-14T04:38:06.931Z,5.00
2019-01-14T04:40:37.260Z,4.90
2019-01-14T04:43:08.785Z,4.90
2019-01-14T04:45:39.029Z,4.80
2019-01-14T04:48:09.345Z,4.70
2019-01-14T04:50:39.819Z,4.70
2019-01-14T04:53:10.122Z,4.80
2019-01-14T04:55:40.532Z,4.80
2019-01-14T04:58:10.935Z,4.90
2019-01-14T05:00:41.361Z,5.00
2019-01-14T05:03:11.771Z,5.00
2019-01-14T05:05:42.035Z,5.10
2019-01-14T05:08:12.360Z,5.10
2019-01-14T05:10:42.785Z,5.20
2019-01-14T05:13:12.996Z,5.20
2019-01-14T05:15:43.334Z,5.30
2019-01-14T05:18:13.636Z,5.30
2019-01-14T05:20:43.858Z,5.40
2019-01-14T05:23:14.276Z,5.30
2019-01-14T05:25:44.609Z,5.40
2019-01-14T05:28:14.887Z,5.40
2019-01-14T05:30:47.342Z,5.40
2019-01-14T05:33:17.692Z,5.40
2019-01-14T05:35:49.011Z,5.40
2019-01-14T05:38:19.413Z,5.50
2019-01-14T05:40:49.785Z,5.50
2019-01-14T05:43:20.183Z,5.50
2019-01-14T05:45:50.493Z,5.50
2019-01-14T05:48:20.760Z,5.50
2019-01-14T05:50:51.268Z,5.50
2019-01-14T05:53:21.702Z,5.50
2019-01-14T05:55:52.042Z,5.50
2019-01-14T05:58:22.371Z,5.40
2019-01-14T06:00:52.765Z,5.40
2019-01-14T06:03:23.495Z,5.30
2019-01-14T06:05:53.835Z,5.40
2019-01-14T06:08:24.322Z,5.40
2019-01-14T06:10:54.795Z,5.40
2019-01-14T06:13:25.156Z,5.30
2019-01-14T06:15:55.562Z,5.30
2019-01-14T06:18:25.816Z,5.30
2019-01-14T06:20:56.090Z,5.30
2019-01-14T06:23:26.344Z,5.30
2019-01-14T06:25:57.785Z,5.30
2019-01-14T06:28:28.210Z,5.20
2019-01-14T06:30:58.528Z,5.20
2019-01-14T06:33:28.919Z,5.20
2019-01-14T06:35:59.300Z,5.10
2019-01-14T06:38:29.687Z,5.10
2019-01-14T06:41:00.015Z,5.00
2019-01-14T06:43:30.300Z,4.90
2019-01-14T06:46:00.645Z,4.90
2019-01-14T06:48:31.237Z,4.90
2019-01-14T06:51:01.709Z,4.80
2019-01-14T06:53:32.113Z,4.80
2019-01-14T06:56:03.580Z,4.80
2019-01-14T06:58:33.975Z,4.90
2019-01-14T07:01:04.592Z,4.90
2019-01-14T07:03:35.192Z,5.00
2019-01-14T07:06:05.519Z,5.00
2019-01-14T07:08:35.866Z,5.00
2019-01-14T07:11:07.023Z,5.00
2019-01-14T07:13:39.517Z,5.00
2019-01-14T07:16:10.920Z,5.00
2019-01-14T07:18:41.528Z,5.00
2019-01-14T07:21:11.974Z,5.00
2019-01-14T07:23:42.319Z,5.00
2019-01-14T07:26:12.664Z,5.00
2019-01-14T07:28:43.043Z,5.00
2019-01-14T07:31:13.601Z,5.00
2019-01-14T07:33:43.874Z,5.00
2019-01-14T07:36:14.234Z,5.00
2019-01-14T07:38:44.777Z,5.00
2019-01-14T07:41:15.228Z,5.00
2019-01-14T07:43:45.559Z,5.00
2019-01-14T07:46:16.005Z,5.10
2019-01-14T07:48:46.453Z,5.10
2019-01-14T07:51:17.112Z,5.10
2019-01-14T07:53:47.446Z,5.10
2019-01-14T07:56:18.305Z,5.10
2019-01-14T07:58:48.917Z,5.20
2019-01-14T08:01:19.241Z,5.20
2019-01-14T08:03:49.642Z,5.20
2019-01-14T08:06:19.979Z,5.20
2019-01-14T08:08:50.443Z,5.20
2019-01-14T08:11:20.725Z,5.10
2019-01-14T08:13:51.033Z,5.10
2019-01-14T08:16:21.522Z,5.10
2019-01-14T08:18:52.065Z,5.20
2019-01-14T08:21:22.452Z,5.20
2019-01-14T08:23:52.750Z,5.20
2019-01-14T08:26:24.425Z,5.20
2019-01-14T08:28:55.648Z,5.20
2019-01-14T08:31:26.111Z,5.20
2019-01-14T08:33:56.684Z,5.10
2019-01-14T08:36:27.240Z,5.10
2019-01-14T08:38:57.601Z,5.10
2019-01-14T08:41:33.067Z,5.20
2019-01-14T08:44:08.926Z,5.40
2019-01-14T08:46:44.180Z,5.60
2019-01-14T08:49:14.628Z,5.70
2019-01-14T08:51:45.034Z,5.70
2019-01-14T08:54:15.460Z,5.70
2019-01-14T08:56:45.903Z,5.70
2019-01-14T08:59:16.335Z,5.70
2019-01-14T09:01:46.744Z,5.80
2019-01-14T09:04:22.251Z,5.90
2019-01-14T09:06:49.428Z,6.00
2019-01-14T09:09:20.033Z,6.00
2019-01-14T09:11:50.369Z,6.10
2019-01-14T09:14:20.728Z,6.10
2019-01-14T09:17:09.228Z,6.00
2019-01-14T09:19:39.608Z,5.90
2019-01-14T09:22:09.989Z,5.80
2019-01-14T09:24:40.435Z,5.70
2019-01-14T09:27:10.770Z,5.70
2019-01-14T09:29:41.231Z,5.70
2019-01-14T09:32:11.926Z,5.80
2019-01-14T09:34:42.810Z,5.90
2019-01-14T09:37:13.160Z,5.90
2019-01-14T09:39:43.535Z,6.00
2019-01-14T09:42:14.101Z,6.10
2019-01-14T09:44:44.454Z,6.10
2019-01-14T09:47:14.753Z,6.10
2019-01-14T09:49:45.697Z,6.10
2019-01-14T09:52:15.858Z,6.10
2019-01-14T09:54:46.286Z,6.00
2019-01-14T09:57:16.769Z,5.90
2019-01-14T09:59:47.078Z,5.90
2019-01-14T10:02:17.392Z,6.00
2019-01-14T10:04:47.781Z,6.00
2019-01-14T10:07:18.210Z,6.00
2019-01-14T10:09:48.578Z,6.00
2019-01-14T10:12:18.963Z,6.00
2019-01-14T10:14:49.260Z,6.00
2019-01-14T10:17:25.455Z,5.90
2019-01-14T10:19:55.856Z,6.00
2019-01-14T10:22:27.881Z,6.00
2019-01-14T10:24:58.098Z,6.00
2019-01-14T10:27:29.720Z,6.00
2019-01-14T10:30:00.156Z,6.00
2019-01-14T10:32:30.567Z,6.10
2019-01-14T10:35:03.871Z,6.10
2019-01-14T10:37:35.876Z,6.10
2019-01-14T10:40:08.677Z,6.10
2019-01-14T10:42:39.173Z,6.10
2019-01-14T10:45:14.658Z,6.00
2019-01-14T10:47:45.306Z,6.00
2019-01-14T10:50:16.005Z,5.90
2019-01-14T10:52:46.545Z,5.90
2019-01-14T10:55:16.993Z,5.90
2019-01-14T10:57:51.509Z,5.80
2019-01-14T11:00:25.454Z,5.80
2019-01-14T11:02:57.753Z,5.80
2019-01-14T11:05:30.921Z,5.80
2019-01-14T11:08:05.097Z,5.80
2019-01-14T11:10:35.440Z,5.80
2019-01-14T11:13:06.017Z,5.80
2019-01-14T11:15:36.558Z,5.80
2019-01-14T11:18:07.000Z,5.80
2019-01-14T11:20:37.562Z,5.80
2019-01-14T11:23:07.880Z,5.80
2019-01-14T11:25:38.342Z,5.80
2019-01-14T11:28:08.771Z,5.80
2019-01-14T11:30:39.270Z,5.80
2019-01-14T11:33:09.672Z,5.80
2019-01-14T11:35:40.358Z,5.70
2019-01-14T11:38:45.624Z,5.80
2019-01-14T11:41:18.424Z,5.90
2019-01-14T11:43:48.881Z,6.00
2019-01-14T11:46:19.300Z,6.00
2019-01-14T11:48:50.818Z,6.00
2019-01-14T11:51:21.141Z,6.10
2019-01-14T11:53:52.647Z,6.10
2019-01-14T11:56:23.062Z,6.10
2019-01-14T11:58:53.351Z,6.10
2019-01-14T12:01:23.879Z,6.10
2019-01-14T12:03:56.799Z,6.20
2019-01-14T12:06:27.239Z,6.00
2019-01-14T12:08:57.569Z,6.10
2019-01-14T12:11:28.001Z,6.00
2019-01-14T12:13:58.394Z,6.00
2019-01-14T12:16:28.802Z,6.00
2019-01-14T12:18:59.168Z,6.00
2019-01-14T12:23:59.393Z,6.10
2019-01-14T12:26:29.862Z,6.10
2019-01-14T12:29:00.024Z,6.30
2019-01-14T12:31:30.359Z,6.40
2019-01-14T12:34:00.741Z,6.50
2019-01-14T12:36:31.393Z,6.50
2019-01-14T12:39:01.728Z,6.50
2019-01-14T12:41:32.169Z,6.50
2019-01-14T12:44:02.590Z,6.40
2019-01-14T12:46:32.788Z,6.30
2019-01-14T12:49:02.989Z,6.30
2019-01-14T12:51:33.533Z,6.20
2019-01-14T12:54:04.013Z,6.20
2019-01-14T12:56:34.417Z,6.20
2019-01-14T12:59:04.828Z,6.30
2019-01-14T13:01:35.251Z,6.50
2019-01-14T13:04:05.693Z,6.60
2019-01-14T13:06:36.132Z,6.60
2019-01-14T13:09:10.710Z,6.50
2019-01-14T13:11:41.074Z,6.40
2019-01-14T13:14:11.459Z,6.20
2019-01-14T13:16:41.660Z,6.00
2019-01-14T13:19:12.029Z,5.00
2019-01-14T13:21:42.305Z,3.70
2019-01-14T13:24:12.617Z,3.10
2019-01-14T13:26:43.132Z,2.80
2019-01-14T13:29:15.251Z,2.70
2019-01-14T13:31:46.001Z,2.60
2019-01-14T13:34:16.426Z,2.60
2019-01-14T13:36:46.986Z,2.60
2019-01-14T13:39:17.273Z,2.50
2019-01-14T13:41:47.640Z,2.40
2019-01-14T13:44:18.095Z,2.40
2019-01-14T13:46:49.561Z,2.50
2019-01-14T13:49:20.194Z,2.60
2019-01-14T13:51:50.452Z,2.50
2019-01-14T13:54:20.943Z,2.40
2019-01-14T13:56:51.325Z,2.50
2019-01-14T13:59:22.697Z,2.50
2019-01-14T14:01:53.049Z,2.60
2019-01-14T14:04:23.323Z,2.60
2019-01-14T14:06:54.836Z,2.60
2019-01-14T14:09:25.203Z,2.50
2019-01-14T14:11:55.562Z,2.50
2019-01-14T14:14:25.907Z,2.40
2019-01-14T14:16:56.307Z,2.40
2019-01-14T14:19:26.516Z,2.40
2019-01-14T14:21:56.888Z,2.40
2019-01-14T14:24:27.243Z,2.40
2019-01-14T14:26:57.729Z,2.40
2019-01-14T14:29:28.250Z,2.50
2019-01-14T14:31:58.557Z,2.60
2019-01-14T14:34:28.934Z,2.70
2019-01-14T14:36:59.250Z,2.70
2019-01-14T14:39:29.469Z,2.60
2019-01-14T14:41:59.767Z,2.60
2019-01-14T14:44:30.076Z,2.70
2019-01-14T14:47:00.547Z,2.70
2019-01-14T14:49:30.893Z,2.80
2019-01-14T14:52:01.298Z,2.80
2019-01-14T14:54:31.730Z,2.80
2019-01-14T14:57:02.097Z,2.80
2019-01-14T14:59:32.472Z,2.80
2019-01-14T15:02:02.961Z,2.80
2019-01-14T15:04:33.299Z,2.80
2019-01-14T15:07:04.698Z,2.90
2019-01-14T15:09:34.918Z,2.80
2019-01-14T15:12:05.370Z,2.80
2019-01-14T15:14:35.877Z,2.70
2019-01-14T15:17:06.306Z,2.60
2019-01-14T15:19:36.712Z,2.60
2019-01-14T15:22:07.036Z,2.50
2019-01-14T15:24:38.407Z,2.50
2019-01-14T15:27:08.747Z,2.40
2019-01-14T15:29:39.071Z,2.30
2019-01-14T15:32:09.364Z,2.20
2019-01-14T15:34:40.787Z,2.10
2019-01-14T15:37:11.191Z,2.10
2019-01-14T15:39:41.602Z,2.00
2019-01-14T15:42:12.011Z,1.90
2019-01-14T15:44:42.494Z,1.90
2019-01-14T15:47:12.829Z,1.90
2019-01-14T15:49:43.037Z,1.80
2019-01-14T15:52:13.407Z,1.70
2019-01-14T15:54:43.941Z,1.70
2019-01-14T15:57:14.398Z,1.70
2019-01-14T15:59:44.759Z,1.70
2019-01-14T16:02:15.200Z,1.80
2019-01-14T16:04:45.442Z,1.80
2019-01-14T16:07:16.850Z,1.70
2019-01-14T16:09:47.218Z,1.70
2019-01-14T16:12:17.569Z,1.70
2019-01-14T16:14:48.015Z,1.70
2019-01-14T16:17:18.378Z,1.80
2019-01-14T16:19:48.628Z,1.80
2019-01-14T16:22:19.058Z,1.80
2019-01-14T16:24:49.496Z,1.90
2019-01-14T16:27:19.739Z,2.00
2019-01-14T16:29:50.131Z,2.00
2019-01-14T16:32:20.458Z,2.00
2019-01-14T16:34:50.803Z,2.00
2019-01-14T16:37:21.239Z,2.00
2019-01-14T16:39:53.731Z,2.00
2019-01-14T16:42:24.171Z,1.90
2019-01-14T16:44:54.580Z,1.90
2019-01-14T16:47:25.034Z,1.90
2019-01-14T16:49:55.261Z,2.00
2019-01-14T16:52:25.694Z,2.20
2019-01-14T16:54:56.086Z,2.20
2019-01-14T16:58:00.370Z,2.20
2019-01-14T17:00:30.751Z,2.20
2019-01-14T17:03:01.096Z,2.20
2019-01-14T17:05:31.471Z,2.20
2019-01-14T17:08:01.876Z,2.10
2019-01-14T17:10:33.125Z,2.10
2019-01-14T17:13:03.657Z,2.10
2019-01-14T17:15:34.110Z,2.20
2019-01-14T17:18:04.830Z,2.20
2019-01-14T17:20:35.186Z,2.10
2019-01-14T17:23:05.815Z,2.20
2019-01-14T17:25:36.229Z,2.20
2019-01-14T17:28:06.971Z,2.30
2019-01-14T17:30:37.346Z,2.30
2019-01-14T17:33:07.707Z,2.40
2019-01-14T17:35:38.230Z,2.40
2019-01-14T17:38:08.625Z,2.40
2019-01-14T17:40:39.987Z,2.50
2019-01-14T17:43:10.865Z,2.60
2019-01-14T17:45:41.556Z,2.70
2019-01-14T17:48:12.075Z,2.70
2019-01-14T17:50:42.691Z,2.70
2019-01-14T17:53:13.166Z,2.80
2019-01-14T17:55:44.340Z,2.80
2019-01-14T17:58:15.005Z,2.80
2019-01-14T18:00:45.478Z,2.80
2019-01-14T18:03:15.993Z,2.80
2019-01-14T18:05:46.400Z,2.80
2019-01-14T18:08:16.966Z,2.90
2019-01-14T18:10:47.393Z,2.90
2019-01-14T18:13:21.112Z,2.90
2019-01-14T18:15:51.525Z,2.90
2019-01-14T18:18:21.876Z,2.90
2019-01-14T18:20:52.559Z,2.90
2019-01-14T18:23:23.024Z,2.90
2019-01-14T18:25:53.236Z,2.90
2019-01-14T18:28:25.962Z,3.00
2019-01-14T18:30:56.422Z,2.90
2019-01-14T18:33:26.624Z,2.90
2019-01-14T18:35:56.994Z,2.80
2019-01-14T18:38:27.549Z,2.70
2019-01-14T18:40:58.033Z,2.60
2019-01-14T18:43:28.530Z,2.60
2019-01-14T18:45:59.256Z,2.40
2019-01-14T18:48:29.628Z,2.50
2019-01-14T18:51:00.066Z,2.50
2019-01-14T18:53:30.531Z,2.40
2019-01-14T18:56:01.084Z,2.40
2019-01-14T18:58:31.733Z,2.50
2019-01-14T19:01:02.126Z,2.50
2019-01-14T19:03:32.462Z,2.50
2019-01-14T19:06:03.078Z,2.60
2019-01-14T19:08:33.503Z,2.60
2019-01-14T19:11:04.103Z,2.60
2019-01-14T19:13:34.387Z,2.60
2019-01-14T19:16:06.191Z,2.60
2019-01-14T19:18:36.545Z,2.60
2019-01-14T19:21:07.119Z,2.50
2019-01-14T19:23:37.561Z,2.50
2019-01-14T19:26:08.610Z,2.50
2019-01-14T19:28:39.095Z,2.50
2019-01-14T19:31:09.636Z,2.50
2019-01-14T19:33:40.047Z,2.50
2019-01-14T19:36:10.638Z,2.40
2019-01-14T19:38:41.109Z,2.30
2019-01-14T19:41:11.748Z,2.30
2019-01-14T19:43:42.155Z,2.20
2019-01-14T19:46:12.718Z,2.20
2019-01-14T19:48:42.914Z,2.20
2019-01-14T19:51:13.365Z,2.20
2019-01-14T19:53:43.669Z,2.10
2019-01-14T19:56:14.141Z,2.20
2019-01-14T19:58:44.547Z,2.20
2019-01-14T20:01:14.938Z,2.20
2019-01-14T20:03:45.323Z,2.20
2019-01-14T20:06:15.764Z,2.20
2019-01-14T20:08:46.263Z,2.20
2019-01-14T20:11:16.619Z,2.20
2019-01-14T20:13:47.333Z,2.20
2019-01-14T20:16:17.643Z,2.20
2019-01-14T20:18:48.069Z,2.30
2019-01-14T20:21:18.508Z,2.30
2019-01-14T20:23:52.405Z,2.30
2019-01-14T20:26:21.081Z,2.30
2019-01-14T20:28:51.458Z,2.30
2019-01-14T20:31:21.934Z,2.30
2019-01-14T20:33:52.236Z,2.30
2019-01-14T20:38:52.556Z,2.40
2019-01-14T20:41:23.108Z,2.40
2019-01-14T20:43:53.611Z,2.40
2019-01-14T20:46:24.148Z,2.40
2019-01-14T20:48:58.120Z,2.30
2019-01-14T20:51:28.484Z,2.20
2019-01-14T20:53:58.855Z,2.20
2019-01-14T20:56:29.262Z,2.20
2019-01-14T20:58:59.573Z,2.20
2019-01-14T21:01:29.962Z,2.30
2019-01-14T21:04:00.308Z,2.30
2019-01-14T21:06:30.631Z,2.40
2019-01-14T21:09:01.112Z,2.40
2019-01-14T21:11:33.460Z,2.40
2019-01-14T21:14:05.098Z,2.40
2019-01-14T21:16:35.438Z,2.40
2019-01-14T21:19:06.935Z,2.40
2019-01-14T21:21:37.356Z,2.40
2019-01-14T21:24:07.881Z,2.40
2019-01-14T21:26:38.370Z,2.40
2019-01-14T21:29:08.953Z,2.40
2019-01-14T21:31:39.375Z,2.50
2019-01-14T21:34:09.852Z,2.50
2019-01-14T21:36:40.335Z,2.50
2019-01-14T21:39:13.379Z,2.50
2019-01-14T21:41:43.827Z,2.50
2019-01-14T21:44:14.230Z,2.60
2019-01-14T21:46:44.825Z,2.60
2019-01-14T21:49:15.566Z,2.40
2019-01-14T21:51:46.129Z,2.30
2019-01-14T21:54:16.955Z,2.20
2019-01-14T21:56:47.386Z,2.20
2019-01-14T21:59:17.978Z,2.10
2019-01-14T22:01:48.443Z,2.00
2019-01-14T22:04:19.309Z,1.90
2019-01-14T22:06:49.777Z,1.90
2019-01-14T22:09:20.230Z,1.90
2019-01-14T22:11:50.627Z,1.90
2019-01-14T22:14:21.127Z,1.80
2019-01-14T22:16:51.583Z,1.80
2019-01-14T22:19:22.144Z,1.80
2019-01-14T22:21:52.872Z,1.80
2019-01-14T22:24:23.189Z,1.80
2019-01-14T22:26:53.966Z,1.70
2019-01-14T22:29:24.260Z,1.60
2019-01-14T22:31:54.747Z,1.50
2019-01-14T22:34:25.083Z,1.40
2019-01-14T22:36:55.521Z,1.30
2019-01-14T22:39:25.802Z,1.20
2019-01-14T22:41:56.281Z,1.00
2019-01-14T22:44:26.500Z,1.00
2019-01-14T22:46:56.961Z,1.00
2019-01-14T22:49:27.506Z,1.00
2019-01-14T22:51:57.819Z,1.00
2019-01-14T22:54:28.156Z,1.10
2019-01-14T22:56:58.469Z,1.10
2019-01-14T22:59:28.864Z,1.20
2019-01-14T23:01:59.263Z,1.20
2019-01-14T23:04:29.524Z,1.30
2019-01-14T23:06:59.839Z,1.50
2019-01-14T23:09:30.288Z,1.50
2019-01-14T23:12:00.507Z,1.60
2019-01-14T23:14:30.946Z,1.60
2019-01-14T23:17:01.368Z,1.60
2019-01-14T23:19:38.823Z,1.60
2019-01-14T23:22:09.233Z,1.60
2019-01-14T23:24:39.575Z,1.60
2019-01-14T23:27:10.051Z,1.50
2019-01-14T23:29:40.549Z,1.50
2019-01-14T23:32:12.026Z,1.50
2019-01-14T23:34:42.258Z,1.50
2019-01-14T23:37:12.785Z,1.50
2019-01-14T23:39:44.115Z,1.60
2019-01-14T23:42:14.502Z,1.60
2019-01-14T23:44:44.913Z,1.60
2019-01-14T23:47:15.454Z,1.60
2019-01-14T23:49:45.780Z,1.70
2019-01-14T23:52:16.120Z,1.70
2019-01-14T23:54:46.329Z,1.70
2019-01-14T23:57:16.724Z,1.80
2019-01-14T23:59:46.990Z,1.80
